createdAt,value
2023-02-07T00:01:46.392Z,25.20
2023-02-07T00:04:18.817Z,27.00
2023-02-07T00:06:50.113Z,23.10
2023-02-07T00:09:21.024Z,26.90
2023-02-07T00:11:53.396Z,25.80
2023-02-07T00:14:25.093Z,26.50
2023-02-07T00:17:00.342Z,26.00
2023-02-07T00:19:33.053Z,24.00
2023-02-07T00:22:04.867Z,23.60
2023-02-07T00:24:36.125Z,24.40
2023-02-07T00:27:08.747Z,26.00
2023-02-07T00:29:44.286Z,28.40
2023-02-07T00:32:17.948Z,26.90
2023-02-07T00:34:51.544Z,24.50
2023-02-07T00:37:24.290Z,28.30
2023-02-07T00:39:58.986Z,26.60
2023-02-07T00:42:29.145Z,28.40
2023-02-07T00:44:59.317Z,28.70
2023-02-07T00:47:29.858Z,29.80
2023-02-07T00:50:01.418Z,28.90
2023-02-07T00:52:31.956Z,27.70
2023-02-07T00:55:02.175Z,28.50
2023-02-07T00:57:32.379Z,28.30
2023-02-07T01:00:06.282Z,27.80
2023-02-07T01:02:42.318Z,30.20
2023-02-07T01:05:18.450Z,28.20
2023-02-07T01:07:49.659Z,30.70
2023-02-07T01:10:20.576Z,29.50
2023-02-07T01:12:51.335Z,27.80
2023-02-07T01:15:21.887Z,26.10
2023-02-07T01:17:52.017Z,28.70
2023-02-07T01:20:23.418Z,26.20
2023-02-07T01:22:55.103Z,27.30
2023-02-07T01:25:25.359Z,28.90
2023-02-07T01:27:56.384Z,28.30
2023-02-07T01:30:27.381Z,28.50
2023-02-07T01:32:57.591Z,29.80
2023-02-07T01:35:28.413Z,30.60
2023-02-07T01:37:59.139Z,30.80
2023-02-07T01:40:31.979Z,28.00
2023-02-07T01:43:03.034Z,26.70
2023-02-07T01:45:36.774Z,29.20
2023-02-07T01:48:09.735Z,27.90
2023-02-07T01:50:41.672Z,28.40
2023-02-07T01:53:14.515Z,29.10
2023-02-07T01:55:45.326Z,28.80
2023-02-07T01:58:16.830Z,27.90
2023-02-07T02:00:47.297Z,28.70
2023-02-07T02:03:17.516Z,28.10
2023-02-07T02:05:48.005Z,30.90
2023-02-07T02:08:21.016Z,32.80
2023-02-07T02:11:06.210Z,35.10
2023-02-07T02:13:43.963Z,35.10
2023-02-07T02:16:21.262Z,46.10
2023-02-07T02:19:02.101Z,45.10
2023-02-07T02:22:11.164Z,47.80
2023-02-07T02:25:15.960Z,42.80
2023-02-07T02:28:15.713Z,34.30
2023-02-07T02:31:21.426Z,35.10
2023-02-07T02:33:54.429Z,42.00
2023-02-07T02:36:29.240Z,52.90
2023-02-07T02:39:15.504Z,51.20
2023-02-07T02:41:51.325Z,39.10
2023-02-07T02:44:26.705Z,36.50
2023-02-07T02:46:58.072Z,35.70
2023-02-07T02:49:30.467Z,38.20
2023-02-07T02:52:12.198Z,38.50
2023-02-07T02:54:48.529Z,32.60
2023-02-07T02:58:03.131Z,31.10
2023-02-07T03:00:44.906Z,37.60
2023-02-07T03:03:34.165Z,46.00
2023-02-07T03:06:11.478Z,43.70
2023-02-07T03:08:46.922Z,40.30
2023-02-07T03:11:18.608Z,37.70
2023-02-07T03:14:02.185Z,36.60
2023-02-07T03:16:36.732Z,35.60
2023-02-07T03:19:10.243Z,38.80
2023-02-07T03:21:43.408Z,36.70
2023-02-07T03:24:20.717Z,36.90
2023-02-07T03:29:21.982Z,36.50
2023-02-07T03:31:57.614Z,36.60
2023-02-07T03:34:33.343Z,36.60
2023-02-07T03:37:07.163Z,36.40
2023-02-07T03:39:37.928Z,35.10
2023-02-07T03:42:10.885Z,33.40
2023-02-07T03:44:43.786Z,34.10
2023-02-07T03:47:18.436Z,35.40
2023-02-07T03:49:48.688Z,34.10
2023-02-07T03:52:19.380Z,30.40
2023-02-07T03:54:49.599Z,29.70
2023-02-07T03:57:20.617Z,28.60
2023-02-07T03:59:51.578Z,28.60
2023-02-07T04:02:22.249Z,29.90
2023-02-07T04:04:52.490Z,30.50
2023-02-07T04:07:26.892Z,28.90
2023-02-07T04:09:57.672Z,30.00
2023-02-07T04:12:32.645Z,29.00
2023-02-07T04:15:08.754Z,30.90
2023-02-07T04:17:39.443Z,29.20
2023-02-07T04:20:12.160Z,30.40
2023-02-07T04:22:42.383Z,32.20
2023-02-07T04:25:13.409Z,31.90
2023-02-07T04:27:43.787Z,30.10
2023-02-07T04:30:15.204Z,29.40
2023-02-07T04:32:45.501Z,31.40
2023-02-07T04:35:18.871Z,30.50
2023-02-07T04:37:49.159Z,31.10
2023-02-07T04:40:20.461Z,30.00
2023-02-07T04:42:51.173Z,29.90
2023-02-07T04:45:21.519Z,30.10
2023-02-07T04:47:51.816Z,31.60
2023-02-07T04:50:21.991Z,30.60
2023-02-07T04:52:53.529Z,30.30
2023-02-07T04:55:23.783Z,35.30
2023-02-07T04:57:54.611Z,33.00
2023-02-07T05:00:25.901Z,32.90
2023-02-07T05:02:56.537Z,33.00
2023-02-07T05:05:27.178Z,31.90
2023-02-07T05:07:57.606Z,33.00
2023-02-07T05:10:27.971Z,34.00
2023-02-07T05:12:58.187Z,33.90
2023-02-07T05:15:28.954Z,31.90
2023-02-07T05:17:59.529Z,34.20
2023-02-07T05:20:30.175Z,33.30
2023-02-07T05:23:00.428Z,33.60
2023-02-07T05:25:31.051Z,32.80
2023-02-07T05:28:01.721Z,32.60
2023-02-07T05:30:33.872Z,32.70
2023-02-07T05:33:04.219Z,34.00
2023-02-07T05:35:36.479Z,32.70
2023-02-07T05:38:09.157Z,29.60
2023-02-07T05:40:41.023Z,30.20
2023-02-07T05:43:11.739Z,32.40
2023-02-07T05:45:42.146Z,32.60
2023-02-07T05:48:12.712Z,31.90
2023-02-07T05:50:42.929Z,33.40
2023-02-07T05:53:13.307Z,31.90
2023-02-07T05:55:43.955Z,33.00
2023-02-07T05:58:14.139Z,34.10
2023-02-07T06:00:44.698Z,34.40
2023-02-07T06:03:15.257Z,33.60
2023-02-07T06:05:46.179Z,34.60
2023-02-07T06:08:17.006Z,34.60
2023-02-07T06:10:49.741Z,36.00
2023-02-07T06:13:20.600Z,34.50
2023-02-07T06:15:50.951Z,33.30
2023-02-07T06:18:21.332Z,34.40
2023-02-07T06:20:53.112Z,31.50
2023-02-07T06:23:23.440Z,33.70
2023-02-07T06:25:53.724Z,31.10
2023-02-07T06:28:25.218Z,39.80
2023-02-07T06:30:55.552Z,31.20
2023-02-07T06:33:26.192Z,29.90
2023-02-07T06:35:56.353Z,30.70
2023-02-07T06:38:26.886Z,29.60
2023-02-07T06:40:57.276Z,28.60
2023-02-07T06:43:27.774Z,25.90
2023-02-07T06:46:00.638Z,22.20
2023-02-07T06:48:30.794Z,24.10
2023-02-07T06:51:07.035Z,22.00
2023-02-07T06:53:42.015Z,22.40
2023-02-07T06:56:13.659Z,24.10
2023-02-07T06:58:46.169Z,22.70
2023-02-07T07:01:19.836Z,23.60
2023-02-07T07:03:52.474Z,25.30
2023-02-07T07:06:22.968Z,28.10
2023-02-07T07:08:53.498Z,31.70
2023-02-07T07:11:23.698Z,34.70
2023-02-07T07:13:54.165Z,35.80
2023-02-07T07:16:24.461Z,35.80
2023-02-07T07:18:54.799Z,34.30
2023-02-07T07:21:32.822Z,34.80
2023-02-07T07:24:07.233Z,38.30
2023-02-07T07:26:48.761Z,39.80
2023-02-07T07:29:22.136Z,39.40
2023-02-07T07:31:52.492Z,41.10
2023-02-07T07:34:23.148Z,40.70
2023-02-07T07:36:56.459Z,41.30
2023-02-07T07:39:27.204Z,37.50
2023-02-07T07:41:57.947Z,40.20
2023-02-07T07:44:28.370Z,39.50
2023-02-07T07:46:59.078Z,38.40
2023-02-07T07:49:29.498Z,42.10
2023-02-07T07:51:59.773Z,41.40
2023-02-07T07:54:30.707Z,39.30
2023-02-07T07:57:03.358Z,40.20
2023-02-07T07:59:34.107Z,41.60
2023-02-07T08:02:10.085Z,39.40
2023-02-07T08:04:42.807Z,40.70
2023-02-07T08:07:13.674Z,40.00
2023-02-07T08:09:44.802Z,43.20
2023-02-07T08:12:27.008Z,42.10
2023-02-07T08:14:59.196Z,40.20
2023-02-07T08:17:35.922Z,39.70
2023-02-07T08:20:07.822Z,39.70
2023-02-07T08:22:41.154Z,42.20
2023-02-07T08:25:12.847Z,39.70
2023-02-07T08:27:43.445Z,38.10
2023-02-07T08:30:19.398Z,36.70
2023-02-07T08:32:52.471Z,34.60
2023-02-07T08:35:27.203Z,29.40
2023-02-07T08:38:05.594Z,33.30
2023-02-07T08:40:37.950Z,32.70
2023-02-07T08:43:12.472Z,30.10
2023-02-07T08:45:44.269Z,22.30
2023-02-07T08:48:17.388Z,24.80
2023-02-07T08:50:49.324Z,23.40
2023-02-07T08:53:19.828Z,25.60
2023-02-07T08:56:04.176Z,23.20
2023-02-07T08:58:35.123Z,24.10
2023-02-07T09:01:10.724Z,23.70
2023-02-07T09:03:41.833Z,28.20
2023-02-07T09:06:16.100Z,21.70
2023-02-07T09:08:47.591Z,21.90
2023-02-07T09:11:18.201Z,25.50
2023-02-07T09:13:49.057Z,24.80
2023-02-07T09:16:24.326Z,21.90
2023-02-07T09:18:57.205Z,22.00
2023-02-07T09:21:27.810Z,21.60
2023-02-07T09:23:58.353Z,16.00
2023-02-07T09:26:32.937Z,13.00
2023-02-07T09:29:04.697Z,11.50
2023-02-07T09:31:38.480Z,9.30
2023-02-07T09:34:12.561Z,10.00
2023-02-07T09:36:45.351Z,8.60
2023-02-07T09:39:16.050Z,8.10
2023-02-07T09:41:55.451Z,8.70
2023-02-07T09:44:30.068Z,9.50
2023-02-07T09:47:03.971Z,10.20
2023-02-07T09:49:38.366Z,9.30
2023-02-07T09:52:15.445Z,7.60
2023-02-07T09:54:47.555Z,5.00
2023-02-07T09:57:21.434Z,4.60
2023-02-07T10:00:03.749Z,4.40
2023-02-07T10:02:39.744Z,3.90
2023-02-07T10:05:17.544Z,4.10
2023-02-07T10:07:48.792Z,4.10
2023-02-07T10:10:23.541Z,4.50
2023-02-07T10:13:18.454Z,2.90
2023-02-07T10:15:58.413Z,3.70
2023-02-07T10:18:49.360Z,2.60
2023-02-07T10:21:28.720Z,1.70
2023-02-07T10:24:21.053Z,2.20
2023-02-07T10:26:55.492Z,2.00
2023-02-07T10:29:45.132Z,1.50
2023-02-07T10:32:18.944Z,1.80
2023-02-07T10:34:54.436Z,3.30
2023-02-07T10:37:27.576Z,2.40
2023-02-07T10:40:03.244Z,3.00
2023-02-07T10:42:37.146Z,2.00
2023-02-07T10:45:12.692Z,1.80
2023-02-07T10:47:45.652Z,1.80
2023-02-07T10:50:29.415Z,2.80
2023-02-07T10:53:07.746Z,1.10
2023-02-07T10:55:43.268Z,1.80
2023-02-07T10:58:24.360Z,2.50
2023-02-07T11:00:56.950Z,2.70
2023-02-07T11:03:36.847Z,2.40
2023-02-07T11:06:25.692Z,1.00
2023-02-07T11:09:28.068Z,1.00
2023-02-07T11:12:24.792Z,0.90
2023-02-07T11:15:28.915Z,0.60
2023-02-07T11:18:08.013Z,0.50
2023-02-07T11:20:48.420Z,1.00
2023-02-07T11:23:30.265Z,1.40
2023-02-07T11:26:07.895Z,1.80
2023-02-07T11:28:58.867Z,1.00
2023-02-07T11:31:33.114Z,1.40
2023-02-07T11:34:21.484Z,1.70
2023-02-07T11:36:54.674Z,0.70
2023-02-07T11:39:32.431Z,0.80
2023-02-07T11:42:15.034Z,0.60
2023-02-07T11:44:52.041Z,1.00
2023-02-07T11:47:25.052Z,0.60
2023-02-07T11:49:57.776Z,0.50
2023-02-07T11:52:30.674Z,0.60
2023-02-07T11:55:02.735Z,0.80
2023-02-07T11:57:34.954Z,1.00
2023-02-07T12:00:17.415Z,0.90
2023-02-07T12:02:52.622Z,1.00
2023-02-07T12:05:26.838Z,0.60
2023-02-07T12:08:36.652Z,1.30
2023-02-07T12:11:15.242Z,1.30
2023-02-07T12:13:54.473Z,0.30
2023-02-07T12:16:41.038Z,0.80
2023-02-07T12:19:23.391Z,1.30
2023-02-07T12:22:09.774Z,0.30
2023-02-07T12:24:46.840Z,0.90
2023-02-07T12:27:23.408Z,0.70
2023-02-07T12:30:03.530Z,0.50
2023-02-07T12:33:03.666Z,1.00
2023-02-07T12:35:55.565Z,1.00
2023-02-07T12:38:31.976Z,1.10
2023-02-07T12:41:15.752Z,0.70
2023-02-07T12:43:54.712Z,0.80
2023-02-07T12:46:36.580Z,1.10
2023-02-07T12:49:21.630Z,1.50
2023-02-07T12:52:01.832Z,1.60
2023-02-07T12:54:45.710Z,1.00
2023-02-07T12:57:23.097Z,0.90
2023-02-07T13:00:05.309Z,2.10
2023-02-07T13:02:45.141Z,0.50
2023-02-07T13:05:44.499Z,0.80
2023-02-07T13:08:42.086Z,1.50
2023-02-07T13:11:43.542Z,1.40
2023-02-07T13:15:25.574Z,0.50
2023-02-07T13:28:46.109Z,1.10
2023-02-07T13:31:23.903Z,1.00
2023-02-07T13:34:05.623Z,1.10
2023-02-07T13:36:43.983Z,1.30
2023-02-07T13:39:39.018Z,0.90
2023-02-07T13:42:23.718Z,1.20
2023-02-07T13:45:03.449Z,1.10
2023-02-07T13:47:50.189Z,1.30
2023-02-07T13:50:59.170Z,1.30
2023-02-07T13:53:46.180Z,1.40
2023-02-07T13:56:52.435Z,1.40
2023-02-07T14:00:10.800Z,0.90
2023-02-07T14:02:53.274Z,0.80
2023-02-07T14:05:33.100Z,1.70
2023-02-07T14:08:35.214Z,0.50
2023-02-07T14:11:34.248Z,0.60
2023-02-07T14:14:26.308Z,0.90
2023-02-07T14:17:16.219Z,1.00
2023-02-07T14:20:18.126Z,0.40
2023-02-07T14:34:30.969Z,2.40
2023-02-07T14:37:40.215Z,0.70
2023-02-07T14:40:32.778Z,0.50
2023-02-07T14:43:07.106Z,0.60
2023-02-07T14:46:02.836Z,0.80
2023-02-07T14:48:54.825Z,0.20
2023-02-07T14:51:42.468Z,0.50
2023-02-07T14:54:29.744Z,0.90
2023-02-07T14:57:27.168Z,0.40
2023-02-07T15:00:39.150Z,0.40
2023-02-07T15:04:13.536Z,0.40
2023-02-07T15:06:49.789Z,0.30
2023-02-07T15:09:24.599Z,0.50
2023-02-07T15:12:18.881Z,0.70
2023-02-07T15:14:58.807Z,0.50
2023-02-07T15:17:43.711Z,0.70
2023-02-07T15:20:30.284Z,0.90
2023-02-07T15:23:03.108Z,0.50
2023-02-07T15:25:37.656Z,0.50
2023-02-07T15:28:26.772Z,0.70
2023-02-07T15:31:03.978Z,0.50
2023-02-07T15:33:40.001Z,0.60
2023-02-07T15:36:31.315Z,0.80
2023-02-07T15:39:04.475Z,0.40
2023-02-07T15:41:36.567Z,0.80
2023-02-07T15:44:18.760Z,0.70
2023-02-07T15:46:53.689Z,0.80
2023-02-07T15:49:32.600Z,0.70
2023-02-07T15:52:08.765Z,0.80
2023-02-07T15:54:45.136Z,0.70
2023-02-07T15:57:23.562Z,0.50
2023-02-07T16:00:02.194Z,0.40
2023-02-07T16:02:35.311Z,0.50
2023-02-07T16:05:12.196Z,0.70
2023-02-07T16:07:47.604Z,1.10
2023-02-07T16:10:27.944Z,0.50
2023-02-07T16:13:03.896Z,0.50
2023-02-07T16:15:36.896Z,0.60
2023-02-07T16:18:35.379Z,0.60
2023-02-07T16:21:06.480Z,0.90
2023-02-07T16:23:38.437Z,0.80
2023-02-07T16:26:27.494Z,0.80
2023-02-07T16:28:58.302Z,0.40
2023-02-07T16:31:34.151Z,1.20
2023-02-07T16:34:07.593Z,0.80
2023-02-07T16:36:42.088Z,0.40
2023-02-07T16:39:13.629Z,0.20
2023-02-07T16:41:49.228Z,0.50
2023-02-07T16:44:23.184Z,0.30
2023-02-07T16:46:54.129Z,0.40
2023-02-07T16:49:28.742Z,0.40
2023-02-07T16:51:59.498Z,0.50
2023-02-07T16:54:36.227Z,0.10
2023-02-07T16:57:10.409Z,0.70
2023-02-07T16:59:42.967Z,0.40
2023-02-07T17:02:16.368Z,0.50
2023-02-07T17:04:47.573Z,1.30
2023-02-07T17:07:20.695Z,0.30
2023-02-07T17:10:03.130Z,0.60
2023-02-07T17:12:36.099Z,0.40
2023-02-07T17:15:08.642Z,0.60
2023-02-07T17:17:39.082Z,0.30
2023-02-07T17:20:23.692Z,0.20
2023-02-07T17:22:56.217Z,0.50
2023-02-07T17:25:28.337Z,0.40
2023-02-07T17:28:00.112Z,0.60
2023-02-07T17:30:34.259Z,0.70
2023-02-07T17:33:06.778Z,0.30
2023-02-07T17:35:39.341Z,0.60
2023-02-07T17:38:11.757Z,0.80
2023-02-07T17:40:42.547Z,0.30
2023-02-07T17:43:15.874Z,0.60
2023-02-07T17:45:48.623Z,0.70
2023-02-07T17:48:30.577Z,0.30
2023-02-07T17:51:03.116Z,0.40
2023-02-07T17:53:37.756Z,0.40
2023-02-07T17:56:10.174Z,0.40
2023-02-07T17:58:44.337Z,0.30
2023-02-07T18:01:19.377Z,0.40
2023-02-07T18:04:07.954Z,0.30
2023-02-07T18:06:38.863Z,0.80
2023-02-07T18:09:10.346Z,0.30
2023-02-07T18:11:42.692Z,0.50
2023-02-07T18:14:13.205Z,0.60
2023-02-07T18:16:46.521Z,0.40
2023-02-07T18:19:18.946Z,0.30
2023-02-07T18:21:50.046Z,0.60
2023-02-07T18:24:22.264Z,0.60
2023-02-07T18:26:58.895Z,0.60
2023-02-07T18:29:29.578Z,0.30
2023-02-07T18:32:02.206Z,0.30
2023-02-07T18:34:35.189Z,0.30
2023-02-07T18:37:08.488Z,0.40
2023-02-07T18:39:39.322Z,0.40
2023-02-07T18:42:09.533Z,0.30
2023-02-07T18:44:40.601Z,0.10
2023-02-07T18:47:13.407Z,0.20
2023-02-07T18:49:46.968Z,0.20
2023-02-07T18:52:18.418Z,0.60
2023-02-07T18:54:49.316Z,0.40
2023-02-07T18:57:19.756Z,0.50
2023-02-07T18:59:53.715Z,0.20
2023-02-07T19:02:27.502Z,0.30
2023-02-07T19:04:58.973Z,0.10
2023-02-07T19:07:29.739Z,0.30
2023-02-07T19:10:02.972Z,0.20
2023-02-07T19:12:34.883Z,0.40
2023-02-07T19:15:08.398Z,0.30
2023-02-07T19:17:39.024Z,0.30
2023-02-07T19:20:11.686Z,0.40
2023-02-07T19:22:42.433Z,0.10
2023-02-07T19:25:14.252Z,0.30
2023-02-07T19:27:44.715Z,0.20
2023-02-07T19:30:16.830Z,0.20
2023-02-07T19:32:48.248Z,0.40
2023-02-07T19:35:20.000Z,0.20
2023-02-07T19:37:50.837Z,0.40
2023-02-07T19:40:22.395Z,0.40
2023-02-07T19:42:57.294Z,0.30
2023-02-07T19:45:29.303Z,0.20
2023-02-07T19:48:00.380Z,0.40
2023-02-07T19:50:44.809Z,0.40
2023-02-07T19:53:19.171Z,0.20
2023-02-07T19:55:55.112Z,0.30
2023-02-07T19:58:26.053Z,0.10
2023-02-07T20:00:58.054Z,0.20
2023-02-07T20:03:28.972Z,0.40
2023-02-07T20:06:02.602Z,0.10
2023-02-07T20:08:34.565Z,0.20
2023-02-07T20:11:07.726Z,0.10
2023-02-07T20:13:42.546Z,0.10
2023-02-07T20:16:20.415Z,0.30
2023-02-07T20:18:54.754Z,0.30
2023-02-07T20:21:27.498Z,0.20
2023-02-07T20:23:59.619Z,0.20
2023-02-07T20:26:32.680Z,0.60
2023-02-07T20:29:06.389Z,0.20
2023-02-07T20:31:37.045Z,0.30
2023-02-07T20:34:08.710Z,0.60
2023-02-07T20:36:42.095Z,0.40
2023-02-07T20:39:22.720Z,0.30
2023-02-07T20:41:58.361Z,0.40
2023-02-07T20:44:29.241Z,0.50
2023-02-07T20:47:03.501Z,0.30
2023-02-07T20:49:35.668Z,0.50
2023-02-07T20:52:06.142Z,0.50
2023-02-07T20:54:39.944Z,0.30
2023-02-07T20:57:10.437Z,0.40
2023-02-07T20:59:40.558Z,0.20
2023-02-07T21:02:13.048Z,0.40
2023-02-07T21:04:47.292Z,0.20
2023-02-07T21:07:20.585Z,0.20
2023-02-07T21:09:52.923Z,0.50
2023-02-07T21:12:23.474Z,0.20
2023-02-07T21:14:53.908Z,0.40
2023-02-07T21:17:24.265Z,0.40
2023-02-07T21:19:54.919Z,0.30
2023-02-07T21:22:29.004Z,0.30
2023-02-07T21:24:59.313Z,0.40
2023-02-07T21:27:29.515Z,0.80
2023-02-07T21:30:00.553Z,0.10
2023-02-07T21:32:31.004Z,0.40
2023-02-07T21:35:01.239Z,0.60
2023-02-07T21:37:31.929Z,0.40
2023-02-07T21:40:05.846Z,0.30
2023-02-07T21:42:36.393Z,0.50
2023-02-07T21:45:08.349Z,0.30
2023-02-07T21:47:39.032Z,0.30
2023-02-07T21:50:10.006Z,0.30
2023-02-07T21:52:40.404Z,0.20
2023-02-07T21:55:13.839Z,0.20
2023-02-07T21:57:44.374Z,0.40
2023-02-07T22:00:16.240Z,0.40
2023-02-07T22:02:46.519Z,0.50
2023-02-07T22:05:17.680Z,0.40
2023-02-07T22:07:48.743Z,0.40
2023-02-07T22:10:19.944Z,0.50
2023-02-07T22:12:50.192Z,0.30
2023-02-07T22:15:20.604Z,0.30
2023-02-07T22:17:52.286Z,0.10
2023-02-07T22:20:22.893Z,0.20
2023-02-07T22:22:53.236Z,0.20
2023-02-07T22:25:24.600Z,0.30
2023-02-07T22:27:54.782Z,0.20
2023-02-07T22:30:25.238Z,0.20
2023-02-07T22:32:55.498Z,0.20
2023-02-07T22:35:25.969Z,0.20
2023-02-07T22:37:56.911Z,0.30
2023-02-07T22:40:27.124Z,0.30
2023-02-07T22:42:57.370Z,0.40
2023-02-07T22:45:30.125Z,0.30
2023-02-07T22:48:00.604Z,0.20
2023-02-07T22:50:30.809Z,0.20
2023-02-07T22:53:01.017Z,0.20
2023-02-07T22:55:32.276Z,0.20
2023-02-07T22:58:02.419Z,0.50
2023-02-07T23:00:33.568Z,0.10
2023-02-07T23:03:06.573Z,0.20
2023-02-07T23:05:39.941Z,0.20
2023-02-07T23:08:10.356Z,0.30
2023-02-07T23:10:42.247Z,0.80
2023-02-07T23:13:12.546Z,0.20
2023-02-07T23:15:47.634Z,0.20
2023-02-07T23:18:18.510Z,0.10
2023-02-07T23:20:48.926Z,0.20
2023-02-07T23:23:21.247Z,0.30
2023-02-07T23:25:51.928Z,0.50
2023-02-07T23:28:23.782Z,0.50
2023-02-07T23:30:54.265Z,0.30
2023-02-07T23:33:24.445Z,0.20
2023-02-07T23:35:56.082Z,0.30
2023-02-07T23:38:26.740Z,0.50
2023-02-07T23:40:57.477Z,0.20
2023-02-07T23:43:28.254Z,0.20
2023-02-07T23:46:00.196Z,0.20
2023-02-07T23:48:30.703Z,0.20
2023-02-07T23:51:00.938Z,0.40
2023-02-07T23:53:31.853Z,0.40
2023-02-07T23:56:02.412Z,0.40
2023-02-07T23:58:33.284Z,0.20
